Portada
METAR-TAF:

METAR-TAF

Aeroports :

Aeroport Internacional Elefthérios Venizelos

Atenes, Grècia

latitud: 37-56N, longitud: 023-56E, altitud: 94 m

Observació

L'informe es va fer fa 25 minuts, a les 07:50 UTC
Vent 13 kt del Nord/Nord-Est
Temperatura 19°C
Humitat 64%
Pressió 1018 hPa
Visibilitat: 9000 m
Escasses núvols a una alçada de 2500 ft

METAR: LGAV 220750Z 02013KT 9000 FEW025 19/12 Q1018 NOSIG

Hora: 11:15 (08:15 UTC)

Pronòstic

L'informe es va fer fa 3 hores i 15 minuts, a les 05:00 UTC
Pronòstic vàlid del 22 a les 06 UTC al 23 a les 06 UTC
Vent 15 kt del Nord-Est
Visibilitat 10 km o més
Escasses núvols a una alçada de 2500 ft
Núvols disperses a una alçada de 7000 ft
Probabilitat 30% :
Temporalment
l' 22 a les 15 UTC al 23 a les 06 UTC
Visibilitat: 5000 m
Núvols disperses a una alçada de 1000 ft
Cel ennuvolat a una alçada de 2000 ft
pluja

TAF: LGAV 220500Z 2206/2306 04015KT 9999 FEW025 SCT070 PROB30 TEMPO 2215/2306 5000 RA SCT010 BKN020

Observacions i pronòstics meteorològics de més de 4000 aeroports (METAR i TAF).

Les estacions disponibles són els punts grocs i vermells al mapa.

Posi el ratolí al punt desitjat per veure el nom de l'estació.

Feu clic per veure les observacions i els pronòstics meteorològics.

Per canviar el mapa: feu clic els botons verds amb una creu de color negre per apropar; al botó verd amb un guió per allunyar la imatge; o en les fletxes verdes per a mapes adjacents.


METAR-TAF: